| time (UTC) | temp C | wind direction | speed KPH | gust KPH | rain 1hr cm | rain 24hr cm | rain mn cm | humidity % | barometer mb |
| 20260509224506 | 14 | 159 | 4.8 | 9.7 | 0.00 | 0.00 | 0.00 | 85 | 1014.7 |
| 20260509223005 | 14 | 186 | 1.6 | 6.4 | 0.00 | 0.00 | 0.00 | 87 | 1014.8 |
| 20260509221505 | 14 | 204 | 1.6 | 4.8 | 0.00 | 0.00 | 0.00 | 88 | 1014.9 |
| 20260509220003 | 15 | 189 | 0.0 | 3.2 | 0.00 | 0.00 | 0.00 | 87 | 1014.9 |
| 20260509214504 | 15 | 179 | 0.0 | 4.8 | 0.00 | 0.00 | 0.00 | 87 | 1015.0 |
| 20260509213002 | 13 | 96 | 0.0 | 1.6 | 0.00 | 0.00 | 0.00 | 90 | 1015.3 |
| 20260509211502 | 13 | 179 | 0.0 | 0.0 | 0.00 | 0.00 | 0.00 | 91 | 1015.4 |
| 20260509210002 | 14 | 179 | 0.0 | 3.2 | 0.00 | 0.00 | 0.00 | 91 | 1015.4 |
| 20260509204503 | 14 | 198 | 0.0 | 0.0 | 0.00 | 0.00 | 0.00 | 92 | 1015.3 |
| 20260509203102 | 14 | 186 | 0.0 | 0.0 | 0.00 | 0.00 | 0.00 | 92 | 1015.4 |
| 20260509201601 | 14 | 186 | 0.0 | 0.0 | 0.00 | 0.00 | 0.00 | 92 | 1015.4 |
| 20260509200059 | 14 | 186 | 0.0 | 0.0 | 0.00 | 0.00 | 0.00 | 92 | 1015.5 |
| 20260509194559 | 14 | 186 | 0.0 | 0.0 | 0.00 | 0.00 | 0.00 | 91 | 1015.3 |
| 20260509193059 | 15 | 186 | 0.0 | 0.0 | 0.00 | 0.00 | 0.00 | 91 | 1015.3 |
| 20260509191609 | 15 | 186 | 0.0 | 1.6 | 0.00 | 0.00 | 0.00 | 90 | 1015.5 |
| 20260509190100 | 15 | 189 | 1.6 | 4.8 | 0.00 | 0.00 | 0.00 | 90 | 1015.4 |
| 20260509184558 | 15 | 191 | 1.6 | 4.8 | 0.00 | 0.00 | 0.00 | 91 | 1015.4 |
| 20260509183055 | 15 | 162 | 0.0 | 1.6 | 0.00 | 0.00 | 0.00 | 90 | 1015.4 |
| 20260509181603 | 15 | 162 | 0.0 | 3.2 | 0.00 | 0.00 | 0.00 | 90 | 1015.4 |
| 20260509180055 | 16 | 162 | 0.0 | 1.6 | 0.00 | 0.00 | 0.00 | 89 | 1015.3 |
| 20260509174601 | 16 | 162 | 0.0 | 0.0 | 0.00 | 0.00 | 0.00 | 88 | 1015.4 |
| 20260509173104 | 16 | 162 | 0.0 | 0.0 | 0.00 | 0.00 | 0.00 | 87 | 1015.3 |
| 20260509171558 | 16 | 162 | 1.6 | 3.2 | 0.00 | 0.00 | 0.00 | 87 | 1015.2 |
| 20260509170051 | 17 | 154 | 0.0 | 1.6 | 0.00 | 0.00 | 0.00 | 85 | 1015.1 |
| 20260509164551 | 17 | 154 | 0.0 | 0.0 | 0.00 | 0.00 | 0.00 | 84 | 1014.9 |
| 20260509163053 | 17 | 154 | 0.0 | 0.0 | 0.00 | 0.00 | 0.00 | 82 | 1014.6 |
| 20260509161551 | 18 | 154 | 0.0 | 3.2 | 0.00 | 0.00 | 0.00 | 82 | 1014.4 |
| 20260509160048 | 19 | 154 | 0.0 | 3.2 | 0.00 | 0.00 | 0.00 | 79 | 1014.3 |
| 20260509154559 | 20 | 4 | 0.0 | 0.0 | 0.00 | 0.00 | 0.00 | 76 | 1014.0 |
| 20260509153047 | 21 | 4 | 0.0 | 1.6 | 0.00 | 0.00 | 0.00 | 73 | 1013.9 |
| 20260509151548 | 22 | 4 | 0.0 | 1.6 | 0.00 | 0.00 | 0.00 | 66 | 1013.8 |
| 20260509150047 | 22 | 4 | 0.0 | 0.0 | 0.00 | 0.00 | 0.00 | 64 | 1013.7 |
| 20260509144602 | 23 | 4 | 0.0 | 1.6 | 0.00 | 0.00 | 0.00 | 55 | 1013.7 |
| 20260509143045 | 24 | 4 | 1.6 | 4.8 | 0.00 | 0.00 | 0.00 | 51 | 1013.6 |
| 20260509141545 | 25 | 300 | 0.0 | 1.6 | 0.00 | 0.00 | 0.00 | 49 | 1013.4 |
| 20260509140058 | 25 | 289 | 0.0 | 3.2 | 0.00 | 0.00 | 0.00 | 49 | 1013.6 |
| 20260509134550 | 26 | 2 | 0.0 | 1.6 | 0.00 | 0.00 | 0.00 | 43 | 1013.5 |
| 20260509133043 | 26 | 219 | 0.0 | 1.6 | 0.00 | 0.00 | 0.00 | 45 | 1013.5 |
| 20260509131553 | 26 | 206 | 0.0 | 3.2 | 0.00 | 0.00 | 0.00 | 43 | 1013.6 |
| 20260509130043 | 26 | 223 | 0.0 | 3.2 | 0.00 | 0.00 | 0.00 | 38 | 1013.6 |
| 20260509124542 | 27 | 246 | 0.0 | 1.6 | 0.00 | 0.00 | 0.00 | 39 | 1013.7 |
| 20260509123038 | 26 | 212 | 0.0 | 3.2 | 0.00 | 0.00 | 0.00 | 38 | 1013.9 |
| 20260509121549 | 27 | 5 | 0.0 | 3.2 | 0.00 | 0.00 | 0.00 | 36 | 1013.9 |
| 20260509120037 | 27 | 229 | 0.0 | 8.0 | 0.00 | 0.00 | 0.00 | 38 | 1013.9 |
| 20260509114534 | 27 | 37 | 0.0 | 8.0 | 0.00 | 0.00 | 0.00 | 36 | 1014.2 |
| 20260509113030 | 27 | 293 | 0.0 | 4.8 | 0.00 | 0.00 | 0.00 | 37 | 1014.2 |
| 20260509111527 | 26 | 299 | 0.0 | 9.7 | 0.00 | 0.00 | 0.00 | 36 | 1014.6 |
| 20260509110021 | 26 | 196 | 0.0 | 8.0 | 0.00 | 0.00 | 0.00 | 37 | 1014.9 |
| 20260509104520 | 25 | 202 | 4.8 | 11.3 | 0.00 | 0.00 | 0.00 | 37 | 1015.2 |
| 20260509103014 | 25 | 322 | 0.0 | 4.8 | 0.00 | 0.00 | 0.00 | 37 | 1015.4 |
| 20260509101511 | 25 | 348 | 1.6 | 6.4 | 0.00 | 0.00 | 0.00 | 43 | 1015.6 |
| 20260509100009 | 24 | 33 | 0.0 | 8.0 | 0.00 | 0.00 | 0.00 | 50 | 1016.1 |
| 20260509094502 | 23 | 4 | 0.0 | 11.3 | 0.00 | 0.00 | 0.00 | 54 | 1016.3 |
| 20260509093159 | 23 | 359 | 4.8 | 11.3 | 0.00 | 0.00 | 0.00 | 55 | 1016.6 |
| 20260509091557 | 22 | 360 | 1.6 | 6.4 | 0.00 | 0.00 | 0.00 | 56 | 1017.0 |
| 20260509090105 | 22 | 353 | 1.6 | 9.7 | 0.00 | 0.00 | 0.00 | 57 | 1017.3 |
| 20260509084553 | 22 | 39 | 0.0 | 3.2 | 0.00 | 0.00 | 0.00 | 56 | 1017.6 |
| 20260509083051 | 21 | 82 | 0.0 | 4.8 | 0.00 | 0.00 | 0.00 | 58 | 1017.9 |
| 20260509081542 | 20 | 111 | 0.0 | 8.0 | 0.00 | 0.00 | 0.00 | 58 | 1018.2 |
| 20260509080037 | 20 | 177 | 6.4 | 12.9 | 0.00 | 0.00 | 0.00 | 60 | 1018.5 |
| 20260509074532 | 18 | 216 | 4.8 | 12.9 | 0.00 | 0.00 | 0.00 | 64 | 1018.6 |
| 20260509073028 | 18 | 183 | 11.3 | 19.3 | 0.00 | 0.00 | 0.00 | 64 | 1018.7 |
| 20260509071523 | 17 | 194 | 12.9 | 20.9 | 0.00 | 0.00 | 0.00 | 67 | 1018.7 |
| 20260509070017 | 17 | 133 | 8.0 | 17.7 | 0.00 | 0.00 | 0.00 | 71 | 1018.6 |
| 20260509064513 | 16 | 174 | 9.7 | 20.9 | 0.00 | 0.00 | 0.00 | 74 | 1018.5 |
| 20260509063012 | 15 | 201 | 11.3 | 22.5 | 0.00 | 0.00 | 0.00 | 76 | 1018.5 |
| 20260509061514 | 15 | 177 | 11.3 | 24.1 | 0.00 | 0.00 | 0.00 | 79 | 1018.5 |
| 20260509060010 | 14 | 181 | 12.9 | 22.5 | 0.00 | 0.00 | 0.00 | 81 | 1018.3 |
| 20260509054503 | 13 | 170 | 4.8 | 12.9 | 0.00 | 0.00 | 0.00 | 83 | 1018.3 |
| 20260509053002 | 13 | 175 | 8.0 | 17.7 | 0.00 | 0.00 | 0.00 | 83 | 1018.3 |
| 20260509051600 | 13 | 157 | 9.7 | 17.7 | 0.00 | 0.00 | 0.00 | 83 | 1018.2 |
| 20260509050057 | 12 | 175 | 9.7 | 17.7 | 0.00 | 0.00 | 0.00 | 83 | 1017.9 |
| 20260509044554 | 12 | 167 | 9.7 | 16.1 | 0.00 | 0.00 | 0.00 | 84 | 1017.8 |
| 20260509043105 | 12 | 144 | 4.8 | 12.9 | 0.00 | 0.00 | 0.00 | 86 | 1017.8 |
| 20260509041600 | 12 | 142 | 0.0 | 1.6 | 0.00 | 0.00 | 0.00 | 87 | 1017.7 |
| 20260509040055 | 12 | 152 | 6.4 | 9.7 | 0.00 | 0.00 | 0.00 | 86 | 1017.4 |
| 20260509034601 | 12 | 146 | 6.4 | 11.3 | 0.00 | 0.00 | 0.00 | 85 | 1017.3 |
| 20260509033044 | 12 | 160 | 8.0 | 14.5 | 0.00 | 0.00 | 0.00 | 84 | 1017.2 |
| 20260509031542 | 12 | 170 | 3.2 | 9.7 | 0.00 | 0.00 | 0.00 | 85 | 1017.1 |
| 20260509030038 | 12 | 169 | 6.4 | 12.9 | 0.00 | 0.00 | 0.00 | 84 | 1016.9 |
| 20260509024536 | 12 | 158 | 6.4 | 14.5 | 0.00 | 0.00 | 0.00 | 85 | 1016.8 |
| 20260509023037 | 12 | 169 | 4.8 | 9.7 | 0.00 | 0.00 | 0.00 | 85 | 1016.8 |
| 20260509021533 | 13 | 129 | 4.8 | 16.1 | 0.00 | 0.00 | 0.00 | 85 | 1016.7 |
| 20260509020033 | 13 | 142 | 9.7 | 17.7 | 0.00 | 0.00 | 0.00 | 84 | 1016.7 |
| 20260509014530 | 13 | 169 | 11.3 | 17.7 | 0.00 | 0.00 | 0.00 | 85 | 1016.7 |
| 20260509013029 | 13 | 152 | 8.0 | 16.1 | 0.00 | 0.00 | 0.00 | 85 | 1016.6 |
| 20260509011530 | 13 | 179 | 8.0 | 16.1 | 0.00 | 0.00 | 0.00 | 86 | 1016.6 |
| 20260509010038 | 13 | 180 | 8.0 | 17.7 | 0.00 | 0.00 | 0.00 | 86 | 1016.7 |
| 20260509004526 | 13 | 158 | 9.7 | 16.1 | 0.00 | 0.00 | 0.00 | 85 | 1016.7 |
| 20260509003021 | 13 | 164 | 6.4 | 16.1 | 0.00 | 0.00 | 0.00 | 85 | 1016.7 |
| 20260509001519 | 13 | 175 | 9.7 | 20.9 | 0.00 | 0.00 | 0.00 | 85 | 1016.6 |
| 20260509000016 | 13 | 171 | 8.0 | 17.7 | 0.00 | 0.00 | 0.00 | 85 | 1016.5 |
| 20260508234521 | 14 | 174 | 6.4 | 12.9 | 0.00 | 0.00 | 0.00 | 85 | 1016.5 |
| 20260508233014 | 14 | 97 | 6.4 | 14.5 | 0.00 | 0.00 | 0.00 | 84 | 1016.6 |
| 20260508231511 | 14 | 161 | 4.8 | 11.3 | 0.00 | 0.00 | 0.00 | 85 | 1016.7 |
| 20260508230011 | 14 | 153 | 6.4 | 14.5 | 0.00 | 0.00 | 0.00 | 84 | 1016.7 |